sensor_id;sensor_type;location;lat;lon;timestamp;temperature;humidity
73777;DHT22;62088;50.240;2.696;2023-02-21T00:01:38;7.30;85.60
73777;DHT22;62088;50.240;2.696;2023-02-21T00:04:23;7.30;85.60
73777;DHT22;62088;50.240;2.696;2023-02-21T00:07:09;7.30;85.60
73777;DHT22;62088;50.240;2.696;2023-02-21T00:09:54;7.30;85.50
73777;DHT22;62088;50.240;2.696;2023-02-21T00:12:40;7.30;85.50
73777;DHT22;62088;50.240;2.696;2023-02-21T00:15:25;7.30;85.50
73777;DHT22;62088;50.240;2.696;2023-02-21T00:18:11;7.30;85.60
73777;DHT22;62088;50.240;2.696;2023-02-21T00:20:57;7.20;85.60
73777;DHT22;62088;50.240;2.696;2023-02-21T00:23:42;7.20;85.70
73777;DHT22;62088;50.240;2.696;2023-02-21T00:26:28;7.20;85.70
73777;DHT22;62088;50.240;2.696;2023-02-21T00:29:13;7.20;85.70
73777;DHT22;62088;50.240;2.696;2023-02-21T00:31:59;7.30;85.70
73777;DHT22;62088;50.240;2.696;2023-02-21T00:34:45;7.30;85.70
73777;DHT22;62088;50.240;2.696;2023-02-21T00:37:30;7.30;85.60
73777;DHT22;62088;50.240;2.696;2023-02-21T00:40:16;7.30;85.60
73777;DHT22;62088;50.240;2.696;2023-02-21T00:43:02;7.30;85.70
73777;DHT22;62088;50.240;2.696;2023-02-21T00:45:47;7.30;85.70
73777;DHT22;62088;50.240;2.696;2023-02-21T00:48:33;7.30;85.70
73777;DHT22;62088;50.240;2.696;2023-02-21T00:51:18;7.30;85.70
73777;DHT22;62088;50.240;2.696;2023-02-21T00:54:04;7.30;85.70
73777;DHT22;62088;50.240;2.696;2023-02-21T00:56:50;7.30;85.70
73777;DHT22;62088;50.240;2.696;2023-02-21T00:59:35;7.30;85.70
73777;DHT22;62088;50.240;2.696;2023-02-21T01:02:21;7.40;85.60
73777;DHT22;62088;50.240;2.696;2023-02-21T01:05:06;7.40;85.60
73777;DHT22;62088;50.240;2.696;2023-02-21T01:07:52;7.40;85.50
73777;DHT22;62088;50.240;2.696;2023-02-21T01:10:40;7.30;85.50
73777;DHT22;62088;50.240;2.696;2023-02-21T01:13:26;7.30;85.40
73777;DHT22;62088;50.240;2.696;2023-02-21T01:16:11;7.30;85.50
73777;DHT22;62088;50.240;2.696;2023-02-21T01:18:57;7.30;85.50
73777;DHT22;62088;50.240;2.696;2023-02-21T01:21:43;7.30;85.60
73777;DHT22;62088;50.240;2.696;2023-02-21T01:24:28;7.30;85.60
73777;DHT22;62088;50.240;2.696;2023-02-21T01:27:14;7.20;85.60
73777;DHT22;62088;50.240;2.696;2023-02-21T01:29:59;7.20;85.60
73777;DHT22;62088;50.240;2.696;2023-02-21T01:32:45;7.20;85.60
73777;DHT22;62088;50.240;2.696;2023-02-21T01:35:31;7.20;85.60
73777;DHT22;62088;50.240;2.696;2023-02-21T01:38:16;7.20;85.60
73777;DHT22;62088;50.240;2.696;2023-02-21T01:41:02;7.20;85.70
73777;DHT22;62088;50.240;2.696;2023-02-21T01:43:57;7.20;85.70
73777;DHT22;62088;50.240;2.696;2023-02-21T01:46:42;7.10;85.70
73777;DHT22;62088;50.240;2.696;2023-02-21T01:49:28;7.10;85.70
73777;DHT22;62088;50.240;2.696;2023-02-21T01:52:15;7.10;85.80
73777;DHT22;62088;50.240;2.696;2023-02-21T01:55:01;7.20;85.80
73777;DHT22;62088;50.240;2.696;2023-02-21T01:57:48;7.10;85.80
73777;DHT22;62088;50.240;2.696;2023-02-21T02:00:35;7.10;85.80
73777;DHT22;62088;50.240;2.696;2023-02-21T02:03:21;7.20;85.90
73777;DHT22;62088;50.240;2.696;2023-02-21T02:06:09;7.20;85.90
73777;DHT22;62088;50.240;2.696;2023-02-21T02:09:12;7.10;85.90
73777;DHT22;62088;50.240;2.696;2023-02-21T02:12:15;7.20;85.90
73777;DHT22;62088;50.240;2.696;2023-02-21T02:32:16;7.20;85.90
73777;DHT22;62088;50.240;2.696;2023-02-21T02:35:10;7.20;85.90
73777;DHT22;62088;50.240;2.696;2023-02-21T02:38:07;7.20;85.90
73777;DHT22;62088;50.240;2.696;2023-02-21T02:43:15;7.20;86.00
73777;DHT22;62088;50.240;2.696;2023-02-21T02:46:04;7.20;86.00
73777;DHT22;62088;50.240;2.696;2023-02-21T02:48:39;7.20;86.00
73777;DHT22;62088;50.240;2.696;2023-02-21T02:51:10;7.20;86.00
73777;DHT22;62088;50.240;2.696;2023-02-21T02:53:39;7.20;86.00
73777;DHT22;62088;50.240;2.696;2023-02-21T02:56:10;7.20;86.00
73777;DHT22;62088;50.240;2.696;2023-02-21T02:58:53;7.20;86.00
73777;DHT22;62088;50.240;2.696;2023-02-21T03:07:39;7.20;86.00
73777;DHT22;62088;50.240;2.696;2023-02-21T03:13:01;7.20;86.00
73777;DHT22;62088;50.240;2.696;2023-02-21T03:20:53;7.20;86.00
73777;DHT22;62088;50.240;2.696;2023-02-21T03:23:23;7.20;86.00
73777;DHT22;62088;50.240;2.696;2023-02-21T03:25:52;7.20;86.00
73777;DHT22;62088;50.240;2.696;2023-02-21T03:28:21;7.20;86.00
73777;DHT22;62088;50.240;2.696;2023-02-21T03:30:51;7.20;86.00
73777;DHT22;62088;50.240;2.696;2023-02-21T03:33:20;7.20;86.00
73777;DHT22;62088;50.240;2.696;2023-02-21T03:35:47;7.20;86.00
73777;DHT22;62088;50.240;2.696;2023-02-21T03:38:15;7.20;86.00
73777;DHT22;62088;50.240;2.696;2023-02-21T03:40:42;7.20;86.00
73777;DHT22;62088;50.240;2.696;2023-02-21T03:43:09;7.20;86.00
73777;DHT22;62088;50.240;2.696;2023-02-21T03:45:45;7.20;86.00
73777;DHT22;62088;50.240;2.696;2023-02-21T03:48:15;7.20;86.00
73777;DHT22;62088;50.240;2.696;2023-02-21T03:50:59;7.20;86.00
73777;DHT22;62088;50.240;2.696;2023-02-21T03:53:31;7.20;86.00
73777;DHT22;62088;50.240;2.696;2023-02-21T03:56:00;7.20;86.00
73777;DHT22;62088;50.240;2.696;2023-02-21T03:58:36;7.20;86.00
73777;DHT22;62088;50.240;2.696;2023-02-21T04:01:04;7.20;86.00
73777;DHT22;62088;50.240;2.696;2023-02-21T04:03:32;7.20;86.00
73777;DHT22;62088;50.240;2.696;2023-02-21T04:06:02;7.20;86.00
73777;DHT22;62088;50.240;2.696;2023-02-21T04:08:31;7.20;86.00
73777;DHT22;62088;50.240;2.696;2023-02-21T04:10:58;7.20;86.00
73777;DHT22;62088;50.240;2.696;2023-02-21T04:13:29;7.30;86.00
73777;DHT22;62088;50.240;2.696;2023-02-21T04:15:56;7.30;86.00
73777;DHT22;62088;50.240;2.696;2023-02-21T04:18:24;7.30;86.00
73777;DHT22;62088;50.240;2.696;2023-02-21T04:20:53;7.30;85.90
73777;DHT22;62088;50.240;2.696;2023-02-21T04:23:21;7.30;86.00
73777;DHT22;62088;50.240;2.696;2023-02-21T04:25:48;7.30;86.00
73777;DHT22;62088;50.240;2.696;2023-02-21T04:28:23;7.30;86.00
73777;DHT22;62088;50.240;2.696;2023-02-21T04:30:50;7.30;85.90
73777;DHT22;62088;50.240;2.696;2023-02-21T04:33:18;7.30;85.90
73777;DHT22;62088;50.240;2.696;2023-02-21T04:35:45;7.30;85.90
73777;DHT22;62088;50.240;2.696;2023-02-21T04:38:22;7.40;85.90
73777;DHT22;62088;50.240;2.696;2023-02-21T04:40:49;7.40;85.90
73777;DHT22;62088;50.240;2.696;2023-02-21T04:43:16;7.40;85.90
73777;DHT22;62088;50.240;2.696;2023-02-21T04:45:43;7.30;85.80
73777;DHT22;62088;50.240;2.696;2023-02-21T04:48:10;7.30;85.80
73777;DHT22;62088;50.240;2.696;2023-02-21T04:50:37;7.30;85.80
73777;DHT22;62088;50.240;2.696;2023-02-21T04:53:04;7.30;85.80
73777;DHT22;62088;50.240;2.696;2023-02-21T04:55:31;7.30;85.80
73777;DHT22;62088;50.240;2.696;2023-02-21T04:57:58;7.30;85.80
73777;DHT22;62088;50.240;2.696;2023-02-21T05:00:26;7.30;85.80
73777;DHT22;62088;50.240;2.696;2023-02-21T05:02:52;7.30;85.80
73777;DHT22;62088;50.240;2.696;2023-02-21T05:05:20;7.30;85.90
73777;DHT22;62088;50.240;2.696;2023-02-21T05:07:47;7.30;85.90
73777;DHT22;62088;50.240;2.696;2023-02-21T05:10:16;7.30;85.80
73777;DHT22;62088;50.240;2.696;2023-02-21T05:12:43;7.20;85.90
73777;DHT22;62088;50.240;2.696;2023-02-21T05:15:12;7.20;85.90
73777;DHT22;62088;50.240;2.696;2023-02-21T05:17:40;7.20;85.90
73777;DHT22;62088;50.240;2.696;2023-02-21T05:20:07;7.20;85.90
73777;DHT22;62088;50.240;2.696;2023-02-21T05:22:38;7.20;85.90
73777;DHT22;62088;50.240;2.696;2023-02-21T05:25:13;7.20;85.90
73777;DHT22;62088;50.240;2.696;2023-02-21T05:27:40;7.30;85.80
73777;DHT22;62088;50.240;2.696;2023-02-21T05:30:07;7.20;85.90
73777;DHT22;62088;50.240;2.696;2023-02-21T05:32:35;7.20;85.90
73777;DHT22;62088;50.240;2.696;2023-02-21T05:35:02;7.30;85.90
73777;DHT22;62088;50.240;2.696;2023-02-21T05:37:29;7.20;85.90
73777;DHT22;62088;50.240;2.696;2023-02-21T05:39:57;7.30;85.90
73777;DHT22;62088;50.240;2.696;2023-02-21T05:42:25;7.20;85.90
73777;DHT22;62088;50.240;2.696;2023-02-21T05:44:52;7.20;85.90
73777;DHT22;62088;50.240;2.696;2023-02-21T05:47:19;7.20;85.90
73777;DHT22;62088;50.240;2.696;2023-02-21T05:49:46;7.20;85.80
73777;DHT22;62088;50.240;2.696;2023-02-21T05:52:14;7.20;85.80
73777;DHT22;62088;50.240;2.696;2023-02-21T05:54:42;7.30;85.80
73777;DHT22;62088;50.240;2.696;2023-02-21T05:57:10;7.20;85.80
73777;DHT22;62088;50.240;2.696;2023-02-21T05:59:37;7.20;85.80
73777;DHT22;62088;50.240;2.696;2023-02-21T06:02:05;7.20;85.80
73777;DHT22;62088;50.240;2.696;2023-02-21T06:04:32;7.30;85.80
73777;DHT22;62088;50.240;2.696;2023-02-21T06:06:59;7.20;85.80
73777;DHT22;62088;50.240;2.696;2023-02-21T06:09:26;7.20;85.80
73777;DHT22;62088;50.240;2.696;2023-02-21T06:11:55;7.20;85.80
73777;DHT22;62088;50.240;2.696;2023-02-21T06:14:23;7.20;85.80
73777;DHT22;62088;50.240;2.696;2023-02-21T06:16:51;7.20;85.80
73777;DHT22;62088;50.240;2.696;2023-02-21T06:19:18;7.20;85.80
73777;DHT22;62088;50.240;2.696;2023-02-21T06:21:45;7.20;85.80
73777;DHT22;62088;50.240;2.696;2023-02-21T06:24:12;7.20;85.80
73777;DHT22;62088;50.240;2.696;2023-02-21T06:26:39;7.20;85.80
73777;DHT22;62088;50.240;2.696;2023-02-21T06:29:11;7.30;85.70
73777;DHT22;62088;50.240;2.696;2023-02-21T06:31:38;7.30;85.70
73777;DHT22;62088;50.240;2.696;2023-02-21T06:34:06;7.30;85.60
73777;DHT22;62088;50.240;2.696;2023-02-21T06:36:33;7.30;85.60
73777;DHT22;62088;50.240;2.696;2023-02-21T06:39:01;7.30;85.50
73777;DHT22;62088;50.240;2.696;2023-02-21T06:41:29;7.30;85.50
73777;DHT22;62088;50.240;2.696;2023-02-21T06:43:57;7.30;85.40
73777;DHT22;62088;50.240;2.696;2023-02-21T06:46:27;7.30;85.40
73777;DHT22;62088;50.240;2.696;2023-02-21T06:48:54;7.30;85.40
73777;DHT22;62088;50.240;2.696;2023-02-21T06:51:21;7.20;85.30
73777;DHT22;62088;50.240;2.696;2023-02-21T06:53:56;7.20;85.30
73777;DHT22;62088;50.240;2.696;2023-02-21T06:56:23;7.20;85.30
73777;DHT22;62088;50.240;2.696;2023-02-21T06:58:50;7.20;85.30
73777;DHT22;62088;50.240;2.696;2023-02-21T07:01:18;7.20;85.30
73777;DHT22;62088;50.240;2.696;2023-02-21T07:03:45;7.20;85.30
73777;DHT22;62088;50.240;2.696;2023-02-21T07:06:13;7.20;85.40
73777;DHT22;62088;50.240;2.696;2023-02-21T07:08:41;7.20;85.40
73777;DHT22;62088;50.240;2.696;2023-02-21T07:11:08;7.20;85.30
73777;DHT22;62088;50.240;2.696;2023-02-21T07:13:35;7.20;85.30
73777;DHT22;62088;50.240;2.696;2023-02-21T07:16:03;7.20;85.20
73777;DHT22;62088;50.240;2.696;2023-02-21T07:18:30;7.20;85.20
73777;DHT22;62088;50.240;2.696;2023-02-21T07:20:58;7.20;85.30
73777;DHT22;62088;50.240;2.696;2023-02-21T07:23:25;7.10;85.30
73777;DHT22;62088;50.240;2.696;2023-02-21T07:25:52;7.20;85.30
73777;DHT22;62088;50.240;2.696;2023-02-21T07:28:19;7.20;85.30
73777;DHT22;62088;50.240;2.696;2023-02-21T07:30:46;7.10;85.40
73777;DHT22;62088;50.240;2.696;2023-02-21T07:33:14;7.20;85.40
73777;DHT22;62088;50.240;2.696;2023-02-21T07:35:41;7.10;85.40
73777;DHT22;62088;50.240;2.696;2023-02-21T07:38:08;7.20;85.40
73777;DHT22;62088;50.240;2.696;2023-02-21T07:40:35;7.20;85.40
73777;DHT22;62088;50.240;2.696;2023-02-21T07:43:02;7.20;85.40
73777;DHT22;62088;50.240;2.696;2023-02-21T07:45:29;7.20;85.40
73777;DHT22;62088;50.240;2.696;2023-02-21T07:47:56;7.10;85.40
73777;DHT22;62088;50.240;2.696;2023-02-21T07:50:23;7.10;85.40
73777;DHT22;62088;50.240;2.696;2023-02-21T07:52:50;7.10;85.40
73777;DHT22;62088;50.240;2.696;2023-02-21T07:55:17;7.10;85.50
73777;DHT22;62088;50.240;2.696;2023-02-21T07:57:44;7.00;85.50
73777;DHT22;62088;50.240;2.696;2023-02-21T08:00:13;7.00;85.50
73777;DHT22;62088;50.240;2.696;2023-02-21T08:02:40;7.00;85.60
73777;DHT22;62088;50.240;2.696;2023-02-21T08:05:07;7.00;85.60
73777;DHT22;62088;50.240;2.696;2023-02-21T08:07:35;7.00;85.70
73777;DHT22;62088;50.240;2.696;2023-02-21T08:10:02;7.00;85.70
73777;DHT22;62088;50.240;2.696;2023-02-21T08:12:30;7.00;85.70
73777;DHT22;62088;50.240;2.696;2023-02-21T08:14:57;7.00;85.80
73777;DHT22;62088;50.240;2.696;2023-02-21T08:17:24;7.00;85.80
73777;DHT22;62088;50.240;2.696;2023-02-21T08:19:51;6.90;85.80
73777;DHT22;62088;50.240;2.696;2023-02-21T08:22:18;7.00;85.90
73777;DHT22;62088;50.240;2.696;2023-02-21T08:24:51;7.00;85.80
73777;DHT22;62088;50.240;2.696;2023-02-21T08:27:18;7.00;85.80
73777;DHT22;62088;50.240;2.696;2023-02-21T08:29:48;6.90;85.90
73777;DHT22;62088;50.240;2.696;2023-02-21T08:32:16;7.00;85.90
73777;DHT22;62088;50.240;2.696;2023-02-21T08:34:48;6.90;85.90
73777;DHT22;62088;50.240;2.696;2023-02-21T08:37:15;6.90;85.90
73777;DHT22;62088;50.240;2.696;2023-02-21T08:39:50;6.90;86.00
73777;DHT22;62088;50.240;2.696;2023-02-21T08:42:18;6.90;86.00
73777;DHT22;62088;50.240;2.696;2023-02-21T08:44:46;6.90;86.00
73777;DHT22;62088;50.240;2.696;2023-02-21T08:47:15;6.90;86.00
73777;DHT22;62088;50.240;2.696;2023-02-21T08:49:46;6.90;86.10
73777;DHT22;62088;50.240;2.696;2023-02-21T08:52:15;6.90;86.10
73777;DHT22;62088;50.240;2.696;2023-02-21T08:54:42;6.90;86.10
73777;DHT22;62088;50.240;2.696;2023-02-21T08:57:10;6.90;86.10
73777;DHT22;62088;50.240;2.696;2023-02-21T08:59:43;6.90;86.10
73777;DHT22;62088;50.240;2.696;2023-02-21T09:02:17;6.90;86.10
73777;DHT22;62088;50.240;2.696;2023-02-21T09:04:45;6.90;86.10
73777;DHT22;62088;50.240;2.696;2023-02-21T09:07:14;6.90;86.20
73777;DHT22;62088;50.240;2.696;2023-02-21T09:09:42;6.90;86.20
73777;DHT22;62088;50.240;2.696;2023-02-21T09:12:09;7.00;86.20
73777;DHT22;62088;50.240;2.696;2023-02-21T09:14:39;7.00;86.10
73777;DHT22;62088;50.240;2.696;2023-02-21T09:17:11;7.00;86.10
73777;DHT22;62088;50.240;2.696;2023-02-21T09:19:38;7.00;86.00
73777;DHT22;62088;50.240;2.696;2023-02-21T09:22:07;7.00;86.00
73777;DHT22;62088;50.240;2.696;2023-02-21T09:24:35;7.00;86.00
73777;DHT22;62088;50.240;2.696;2023-02-21T09:27:02;7.00;86.00
73777;DHT22;62088;50.240;2.696;2023-02-21T09:29:31;7.00;86.00
73777;DHT22;62088;50.240;2.696;2023-02-21T09:32:11;7.00;86.10
73777;DHT22;62088;50.240;2.696;2023-02-21T09:34:38;7.00;86.20
73777;DHT22;62088;50.240;2.696;2023-02-21T09:37:06;7.00;86.10
73777;DHT22;62088;50.240;2.696;2023-02-21T09:39:36;7.00;86.10
73777;DHT22;62088;50.240;2.696;2023-02-21T09:42:04;7.00;86.00
73777;DHT22;62088;50.240;2.696;2023-02-21T09:44:31;7.00;86.10
73777;DHT22;62088;50.240;2.696;2023-02-21T09:47:04;7.00;86.00
73777;DHT22;62088;50.240;2.696;2023-02-21T09:49:32;7.00;86.00
73777;DHT22;62088;50.240;2.696;2023-02-21T09:52:02;7.00;86.10
73777;DHT22;62088;50.240;2.696;2023-02-21T09:54:38;7.00;86.10
73777;DHT22;62088;50.240;2.696;2023-02-21T09:57:12;7.00;86.10
73777;DHT22;62088;50.240;2.696;2023-02-21T09:59:40;7.00;86.10
73777;DHT22;62088;50.240;2.696;2023-02-21T10:10:11;7.00;85.90
73777;DHT22;62088;50.240;2.696;2023-02-21T10:12:46;6.90;85.90
73777;DHT22;62088;50.240;2.696;2023-02-21T10:18:39;7.00;85.90
73777;DHT22;62088;50.240;2.696;2023-02-21T10:21:20;7.00;86.00
73777;DHT22;62088;50.240;2.696;2023-02-21T10:23:50;7.00;85.90
73777;DHT22;62088;50.240;2.696;2023-02-21T10:26:22;7.00;85.90
73777;DHT22;62088;50.240;2.696;2023-02-21T10:28:51;7.00;85.90
73777;DHT22;62088;50.240;2.696;2023-02-21T10:31:34;7.00;86.00
73777;DHT22;62088;50.240;2.696;2023-02-21T10:34:06;7.00;86.00
73777;DHT22;62088;50.240;2.696;2023-02-21T10:36:34;7.10;85.90
73777;DHT22;62088;50.240;2.696;2023-02-21T10:39:15;7.10;85.90
73777;DHT22;62088;50.240;2.696;2023-02-21T10:41:43;7.10;85.90
73777;DHT22;62088;50.240;2.696;2023-02-21T10:44:37;7.00;85.80
73777;DHT22;62088;50.240;2.696;2023-02-21T10:53:09;7.00;85.70
73777;DHT22;62088;50.240;2.696;2023-02-21T10:58:34;7.10;85.80
73777;DHT22;62088;50.240;2.696;2023-02-21T11:03:55;7.10;85.80
73777;DHT22;62088;50.240;2.696;2023-02-21T11:06:38;7.20;85.90
73777;DHT22;62088;50.240;2.696;2023-02-21T11:14:44;7.30;85.80
73777;DHT22;62088;50.240;2.696;2023-02-21T11:17:29;7.30;85.80
73777;DHT22;62088;50.240;2.696;2023-02-21T11:22:37;7.30;85.70
73777;DHT22;62088;50.240;2.696;2023-02-21T11:30:46;7.40;85.50
73777;DHT22;62088;50.240;2.696;2023-02-21T11:33:21;7.50;85.40
73777;DHT22;62088;50.240;2.696;2023-02-21T11:35:50;7.50;85.30
73777;DHT22;62088;50.240;2.696;2023-02-21T11:38:37;7.60;85.30
73777;DHT22;62088;50.240;2.696;2023-02-21T11:43:52;7.80;85.50
73777;DHT22;62088;50.240;2.696;2023-02-21T11:46:44;7.90;85.50
73777;DHT22;62088;50.240;2.696;2023-02-21T11:52:09;8.00;85.00
73777;DHT22;62088;50.240;2.696;2023-02-21T11:54:38;8.00;84.80
73777;DHT22;62088;50.240;2.696;2023-02-21T11:59:55;8.10;84.60
73777;DHT22;62088;50.240;2.696;2023-02-21T12:08:12;8.30;84.00
73777;DHT22;62088;50.240;2.696;2023-02-21T12:19:38;8.40;83.30
73777;DHT22;62088;50.240;2.696;2023-02-21T12:31:39;8.40;82.90
73777;DHT22;62088;50.240;2.696;2023-02-21T12:47:06;8.60;82.90
73777;DHT22;62088;50.240;2.696;2023-02-21T12:50:49;9.00;82.30
73777;DHT22;62088;50.240;2.696;2023-02-21T12:53:00;9.10;82.50
73777;DHT22;62088;50.240;2.696;2023-02-21T12:55:38;9.20;82.50
73777;DHT22;62088;50.240;2.696;2023-02-21T13:00:51;9.40;82.00
73777;DHT22;62088;50.240;2.696;2023-02-21T13:06:24;9.50;81.70
73777;DHT22;62088;50.240;2.696;2023-02-21T13:14:19;9.60;80.70
73777;DHT22;62088;50.240;2.696;2023-02-21T13:16:51;9.60;80.50
73777;DHT22;62088;50.240;2.696;2023-02-21T13:19:20;9.70;80.20
73777;DHT22;62088;50.240;2.696;2023-02-21T13:30:02;9.90;80.10
73777;DHT22;62088;50.240;2.696;2023-02-21T13:32:37;10.00;80.00
73777;DHT22;62088;50.240;2.696;2023-02-21T13:35:08;10.10;79.40
73777;DHT22;62088;50.240;2.696;2023-02-21T13:37:44;10.20;79.00
73777;DHT22;62088;50.240;2.696;2023-02-21T13:40:24;10.20;78.80
73777;DHT22;62088;50.240;2.696;2023-02-21T13:43:25;10.30;78.80
73777;DHT22;62088;50.240;2.696;2023-02-21T13:45:50;10.30;78.80
73777;DHT22;62088;50.240;2.696;2023-02-21T13:48:25;10.40;78.60
73777;DHT22;62088;50.240;2.696;2023-02-21T13:50:55;10.40;78.60
73777;DHT22;62088;50.240;2.696;2023-02-21T13:58:33;10.70;78.30
73777;DHT22;62088;50.240;2.696;2023-02-21T14:03:51;10.80;77.70
73777;DHT22;62088;50.240;2.696;2023-02-21T14:06:29;10.90;77.40
73777;DHT22;62088;50.240;2.696;2023-02-21T14:09:01;10.90;77.20
73777;DHT22;62088;50.240;2.696;2023-02-21T14:11:47;10.90;77.00
73777;DHT22;62088;50.240;2.696;2023-02-21T14:14:27;11.00;76.90
73777;DHT22;62088;50.240;2.696;2023-02-21T14:17:01;11.00;76.70
73777;DHT22;62088;50.240;2.696;2023-02-21T14:19:47;11.00;76.60
73777;DHT22;62088;50.240;2.696;2023-02-21T14:22:15;11.10;76.70
73777;DHT22;62088;50.240;2.696;2023-02-21T14:24:49;11.20;76.60
73777;DHT22;62088;50.240;2.696;2023-02-21T14:32:45;11.40;75.90
73777;DHT22;62088;50.240;2.696;2023-02-21T14:37:58;11.40;75.60
73777;DHT22;62088;50.240;2.696;2023-02-21T15:00:29;11.50;74.70
73777;DHT22;62088;50.240;2.696;2023-02-21T15:03:16;11.50;74.40
73777;DHT22;62088;50.240;2.696;2023-02-21T15:06:06;11.40;74.20
73777;DHT22;62088;50.240;2.696;2023-02-21T15:08:45;11.40;74.10
73777;DHT22;62088;50.240;2.696;2023-02-21T15:11:21;11.50;73.90
73777;DHT22;62088;50.240;2.696;2023-02-21T15:14:20;11.40;73.80
73777;DHT22;62088;50.240;2.696;2023-02-21T15:16:56;11.40;73.50
73777;DHT22;62088;50.240;2.696;2023-02-21T15:30:19;11.30;73.40
73777;DHT22;62088;50.240;2.696;2023-02-21T15:35:33;11.20;73.60
73777;DHT22;62088;50.240;2.696;2023-02-21T15:38:04;11.20;73.80
73777;DHT22;62088;50.240;2.696;2023-02-21T15:40:34;11.10;73.90
73777;DHT22;62088;50.240;2.696;2023-02-21T15:43:02;11.10;74.10
73777;DHT22;62088;50.240;2.696;2023-02-21T15:45:35;11.00;74.20
73777;DHT22;62088;50.240;2.696;2023-02-21T15:48:04;11.00;74.40
73777;DHT22;62088;50.240;2.696;2023-02-21T15:50:35;10.90;74.50
73777;DHT22;62088;50.240;2.696;2023-02-21T15:53:17;10.90;74.60
73777;DHT22;62088;50.240;2.696;2023-02-21T15:55:46;10.80;74.70
73777;DHT22;62088;50.240;2.696;2023-02-21T15:58:23;10.70;74.80
73777;DHT22;62088;50.240;2.696;2023-02-21T16:01:06;10.60;74.90
73777;DHT22;62088;50.240;2.696;2023-02-21T16:03:40;10.60;75.00
73777;DHT22;62088;50.240;2.696;2023-02-21T16:06:28;10.50;75.10
73777;DHT22;62088;50.240;2.696;2023-02-21T16:17:32;10.40;75.80
73777;DHT22;62088;50.240;2.696;2023-02-21T16:22:41;10.30;76.20
73777;DHT22;62088;50.240;2.696;2023-02-21T16:25:30;10.20;76.30
73777;DHT22;62088;50.240;2.696;2023-02-21T16:27:59;10.20;76.50
73777;DHT22;62088;50.240;2.696;2023-02-21T16:30:28;10.10;76.60
73777;DHT22;62088;50.240;2.696;2023-02-21T16:33:01;10.10;76.70
73777;DHT22;62088;50.240;2.696;2023-02-21T16:35:30;10.10;76.80
73777;DHT22;62088;50.240;2.696;2023-02-21T16:37:58;10.00;77.00
73777;DHT22;62088;50.240;2.696;2023-02-21T16:40:33;9.90;77.10
73777;DHT22;62088;50.240;2.696;2023-02-21T16:43:02;9.90;77.20
73777;DHT22;62088;50.240;2.696;2023-02-21T16:45:30;9.90;77.30
73777;DHT22;62088;50.240;2.696;2023-02-21T16:48:02;9.90;77.40
73777;DHT22;62088;50.240;2.696;2023-02-21T16:50:32;9.80;77.50
73777;DHT22;62088;50.240;2.696;2023-02-21T16:53:00;9.80;77.60
73777;DHT22;62088;50.240;2.696;2023-02-21T16:55:28;9.70;77.70
73777;DHT22;62088;50.240;2.696;2023-02-21T16:58:01;9.70;77.80
73777;DHT22;62088;50.240;2.696;2023-02-21T17:00:30;9.60;77.80
73777;DHT22;62088;50.240;2.696;2023-02-21T17:02:58;9.60;77.90
73777;DHT22;62088;50.240;2.696;2023-02-21T17:05:25;9.60;77.90
73777;DHT22;62088;50.240;2.696;2023-02-21T17:07:53;9.60;77.90
73777;DHT22;62088;50.240;2.696;2023-02-21T17:10:21;9.60;77.90
73777;DHT22;62088;50.240;2.696;2023-02-21T17:12:48;9.50;78.00
73777;DHT22;62088;50.240;2.696;2023-02-21T17:15:15;9.50;78.00
73777;DHT22;62088;50.240;2.696;2023-02-21T17:17:43;9.50;78.10
73777;DHT22;62088;50.240;2.696;2023-02-21T17:20:19;9.50;78.10
73777;DHT22;62088;50.240;2.696;2023-02-21T17:22:46;9.40;78.20
73777;DHT22;62088;50.240;2.696;2023-02-21T17:25:14;9.40;78.30
73777;DHT22;62088;50.240;2.696;2023-02-21T17:27:42;9.40;78.40
73777;DHT22;62088;50.240;2.696;2023-02-21T17:30:11;9.40;78.40
73777;DHT22;62088;50.240;2.696;2023-02-21T17:32:38;9.30;78.40
73777;DHT22;62088;50.240;2.696;2023-02-21T17:35:05;9.20;78.40
73777;DHT22;62088;50.240;2.696;2023-02-21T17:37:33;9.20;78.40
73777;DHT22;62088;50.240;2.696;2023-02-21T17:40:00;9.20;78.50
73777;DHT22;62088;50.240;2.696;2023-02-21T17:42:27;9.20;78.50
73777;DHT22;62088;50.240;2.696;2023-02-21T17:44:54;9.10;78.50
73777;DHT22;62088;50.240;2.696;2023-02-21T17:47:22;9.10;78.50
73777;DHT22;62088;50.240;2.696;2023-02-21T17:49:50;9.00;78.50
73777;DHT22;62088;50.240;2.696;2023-02-21T17:52:20;9.00;78.60
73777;DHT22;62088;50.240;2.696;2023-02-21T17:54:47;8.90;78.60
73777;DHT22;62088;50.240;2.696;2023-02-21T17:57:14;8.90;78.60
73777;DHT22;62088;50.240;2.696;2023-02-21T17:59:42;8.80;78.70
73777;DHT22;62088;50.240;2.696;2023-02-21T18:02:10;8.80;78.80
73777;DHT22;62088;50.240;2.696;2023-02-21T18:04:39;8.80;78.80
73777;DHT22;62088;50.240;2.696;2023-02-21T18:07:06;8.70;78.80
73777;DHT22;62088;50.240;2.696;2023-02-21T18:09:37;8.60;78.90
73777;DHT22;62088;50.240;2.696;2023-02-21T18:12:04;8.60;79.00
73777;DHT22;62088;50.240;2.696;2023-02-21T18:14:31;8.50;79.10
73777;DHT22;62088;50.240;2.696;2023-02-21T18:16:58;8.50;79.20
73777;DHT22;62088;50.240;2.696;2023-02-21T18:19:28;8.40;79.30
73777;DHT22;62088;50.240;2.696;2023-02-21T18:21:56;8.40;79.40
73777;DHT22;62088;50.240;2.696;2023-02-21T18:24:23;8.40;79.50
73777;DHT22;62088;50.240;2.696;2023-02-21T18:26:51;8.40;79.50
73777;DHT22;62088;50.240;2.696;2023-02-21T18:29:18;8.30;79.60
73777;DHT22;62088;50.240;2.696;2023-02-21T18:31:49;8.30;79.70
73777;DHT22;62088;50.240;2.696;2023-02-21T18:34:16;8.20;79.70
73777;DHT22;62088;50.240;2.696;2023-02-21T18:36:48;8.20;79.80
73777;DHT22;62088;50.240;2.696;2023-02-21T18:39:16;8.20;79.80
73777;DHT22;62088;50.240;2.696;2023-02-21T18:41:44;8.10;79.80
73777;DHT22;62088;50.240;2.696;2023-02-21T18:44:11;8.10;79.80
73777;DHT22;62088;50.240;2.696;2023-02-21T18:46:38;8.00;79.80
73777;DHT22;62088;50.240;2.696;2023-02-21T18:49:10;8.00;79.90
73777;DHT22;62088;50.240;2.696;2023-02-21T18:51:39;7.90;80.00
73777;DHT22;62088;50.240;2.696;2023-02-21T18:54:06;7.90;80.00
73777;DHT22;62088;50.240;2.696;2023-02-21T18:56:34;7.90;80.00
73777;DHT22;62088;50.240;2.696;2023-02-21T18:59:01;7.90;80.10
73777;DHT22;62088;50.240;2.696;2023-02-21T19:01:28;7.80;80.10
73777;DHT22;62088;50.240;2.696;2023-02-21T19:03:55;7.80;80.00
73777;DHT22;62088;50.240;2.696;2023-02-21T19:06:23;7.70;79.90
73777;DHT22;62088;50.240;2.696;2023-02-21T19:08:52;7.70;79.80
73777;DHT22;62088;50.240;2.696;2023-02-21T19:11:20;7.70;79.80
73777;DHT22;62088;50.240;2.696;2023-02-21T19:13:47;7.60;79.80
73777;DHT22;62088;50.240;2.696;2023-02-21T19:16:17;7.60;79.90
73777;DHT22;62088;50.240;2.696;2023-02-21T19:18:45;7.60;80.00
73777;DHT22;62088;50.240;2.696;2023-02-21T19:21:12;7.50;80.00
73777;DHT22;62088;50.240;2.696;2023-02-21T19:23:41;7.40;80.00
73777;DHT22;62088;50.240;2.696;2023-02-21T19:26:08;7.40;80.20
73777;DHT22;62088;50.240;2.696;2023-02-21T19:28:35;7.40;80.30
73777;DHT22;62088;50.240;2.696;2023-02-21T19:31:04;7.40;80.40
73777;DHT22;62088;50.240;2.696;2023-02-21T19:33:32;7.40;80.40
73777;DHT22;62088;50.240;2.696;2023-02-21T19:36:05;7.40;80.40